sensor_id;sensor_type;location;lat;lon;timestamp;temperature;humidity
59007;DHT22;44792;52.760;6.726;2024-03-08T00:00:04;3.70;99.90
59007;DHT22;44792;52.760;6.726;2024-03-08T00:02:38;3.70;99.90
59007;DHT22;44792;52.760;6.726;2024-03-08T00:05:05;3.80;99.90
59007;DHT22;44792;52.760;6.726;2024-03-08T00:07:31;3.70;99.90
59007;DHT22;44792;52.760;6.726;2024-03-08T00:09:57;3.70;99.90
59007;DHT22;44792;52.760;6.726;2024-03-08T00:12:23;3.70;99.90
59007;DHT22;44792;52.760;6.726;2024-03-08T00:14:49;3.70;99.90
59007;DHT22;44792;52.760;6.726;2024-03-08T00:17:14;3.70;99.90
59007;DHT22;44792;52.760;6.726;2024-03-08T00:19:41;3.60;99.90
59007;DHT22;44792;52.760;6.726;2024-03-08T00:22:07;3.60;99.90
59007;DHT22;44792;52.760;6.726;2024-03-08T00:24:33;3.60;99.90
59007;DHT22;44792;52.760;6.726;2024-03-08T00:26:59;3.50;99.90
59007;DHT22;44792;52.760;6.726;2024-03-08T00:29:24;3.50;99.90
59007;DHT22;44792;52.760;6.726;2024-03-08T00:31:50;3.50;99.90
59007;DHT22;44792;52.760;6.726;2024-03-08T00:34:16;3.50;99.90
59007;DHT22;44792;52.760;6.726;2024-03-08T00:36:41;3.50;99.90
59007;DHT22;44792;52.760;6.726;2024-03-08T00:39:07;3.50;99.90
59007;DHT22;44792;52.760;6.726;2024-03-08T00:41:33;3.40;99.90
59007;DHT22;44792;52.760;6.726;2024-03-08T00:43:59;3.40;99.90
59007;DHT22;44792;52.760;6.726;2024-03-08T00:46:24;3.30;99.90
59007;DHT22;44792;52.760;6.726;2024-03-08T00:48:50;3.30;99.90
59007;DHT22;44792;52.760;6.726;2024-03-08T00:51:16;3.30;99.90
59007;DHT22;44792;52.760;6.726;2024-03-08T00:53:42;3.20;99.90
59007;DHT22;44792;52.760;6.726;2024-03-08T00:56:08;3.20;99.90
59007;DHT22;44792;52.760;6.726;2024-03-08T00:58:37;3.20;99.90
59007;DHT22;44792;52.760;6.726;2024-03-08T01:01:03;3.20;99.90
59007;DHT22;44792;52.760;6.726;2024-03-08T01:03:30;3.20;99.90
59007;DHT22;44792;52.760;6.726;2024-03-08T01:06:00;3.20;99.90
59007;DHT22;44792;52.760;6.726;2024-03-08T01:08:28;3.20;99.90
59007;DHT22;44792;52.760;6.726;2024-03-08T01:10:54;3.20;99.90
59007;DHT22;44792;52.760;6.726;2024-03-08T01:13:20;3.20;99.90
59007;DHT22;44792;52.760;6.726;2024-03-08T01:15:46;3.20;99.90
59007;DHT22;44792;52.760;6.726;2024-03-08T01:18:12;3.20;99.90
59007;DHT22;44792;52.760;6.726;2024-03-08T01:20:38;3.20;99.90
59007;DHT22;44792;52.760;6.726;2024-03-08T01:23:05;3.10;99.90
59007;DHT22;44792;52.760;6.726;2024-03-08T01:25:33;3.20;99.90
59007;DHT22;44792;52.760;6.726;2024-03-08T01:27:59;3.20;99.90
59007;DHT22;44792;52.760;6.726;2024-03-08T01:30:24;3.10;99.90
59007;DHT22;44792;52.760;6.726;2024-03-08T01:32:50;3.10;99.90
59007;DHT22;44792;52.760;6.726;2024-03-08T01:35:16;3.20;99.90
59007;DHT22;44792;52.760;6.726;2024-03-08T01:37:42;3.10;99.90
59007;DHT22;44792;52.760;6.726;2024-03-08T01:40:07;3.10;99.90
59007;DHT22;44792;52.760;6.726;2024-03-08T01:42:34;3.10;99.90
59007;DHT22;44792;52.760;6.726;2024-03-08T01:45:05;3.10;99.90
59007;DHT22;44792;52.760;6.726;2024-03-08T01:47:32;3.10;99.90
59007;DHT22;44792;52.760;6.726;2024-03-08T01:49:59;3.10;99.90
59007;DHT22;44792;52.760;6.726;2024-03-08T01:52:35;3.10;99.90
59007;DHT22;44792;52.760;6.726;2024-03-08T01:55:03;3.10;99.90
59007;DHT22;44792;52.760;6.726;2024-03-08T01:57:32;3.10;99.90
59007;DHT22;44792;52.760;6.726;2024-03-08T02:00:03;3.10;99.90
59007;DHT22;44792;52.760;6.726;2024-03-08T02:02:33;3.10;99.90
59007;DHT22;44792;52.760;6.726;2024-03-08T02:05:00;3.10;99.90
59007;DHT22;44792;52.760;6.726;2024-03-08T02:07:26;3.00;99.90
59007;DHT22;44792;52.760;6.726;2024-03-08T02:09:52;3.00;99.90
59007;DHT22;44792;52.760;6.726;2024-03-08T02:12:18;3.10;99.90
59007;DHT22;44792;52.760;6.726;2024-03-08T02:14:46;3.00;99.90
59007;DHT22;44792;52.760;6.726;2024-03-08T02:17:12;3.00;99.90
59007;DHT22;44792;52.760;6.726;2024-03-08T02:19:38;3.00;99.90
59007;DHT22;44792;52.760;6.726;2024-03-08T02:22:05;3.00;99.90
59007;DHT22;44792;52.760;6.726;2024-03-08T02:24:32;3.00;99.90
59007;DHT22;44792;52.760;6.726;2024-03-08T02:26:58;3.00;99.90
59007;DHT22;44792;52.760;6.726;2024-03-08T02:29:24;3.00;99.90
59007;DHT22;44792;52.760;6.726;2024-03-08T02:31:52;3.00;99.90
59007;DHT22;44792;52.760;6.726;2024-03-08T02:34:18;3.00;99.90
59007;DHT22;44792;52.760;6.726;2024-03-08T02:36:44;2.90;99.90
59007;DHT22;44792;52.760;6.726;2024-03-08T02:39:10;3.00;99.90
59007;DHT22;44792;52.760;6.726;2024-03-08T02:41:36;2.90;99.90
59007;DHT22;44792;52.760;6.726;2024-03-08T02:44:02;2.80;99.90
59007;DHT22;44792;52.760;6.726;2024-03-08T02:46:29;2.90;99.90
59007;DHT22;44792;52.760;6.726;2024-03-08T02:48:55;2.80;99.90
59007;DHT22;44792;52.760;6.726;2024-03-08T02:51:21;2.80;99.90
59007;DHT22;44792;52.760;6.726;2024-03-08T02:53:47;2.80;99.90
59007;DHT22;44792;52.760;6.726;2024-03-08T02:56:15;2.80;99.90
59007;DHT22;44792;52.760;6.726;2024-03-08T02:58:42;2.80;99.90
59007;DHT22;44792;52.760;6.726;2024-03-08T03:01:08;2.80;99.90
59007;DHT22;44792;52.760;6.726;2024-03-08T03:03:35;2.80;99.90
59007;DHT22;44792;52.760;6.726;2024-03-08T03:06:02;2.80;99.90
59007;DHT22;44792;52.760;6.726;2024-03-08T03:08:28;2.80;99.90
59007;DHT22;44792;52.760;6.726;2024-03-08T03:10:54;2.70;99.90
59007;DHT22;44792;52.760;6.726;2024-03-08T03:13:22;2.70;99.90
59007;DHT22;44792;52.760;6.726;2024-03-08T03:15:49;2.70;99.90
59007;DHT22;44792;52.760;6.726;2024-03-08T03:18:15;2.70;99.90
59007;DHT22;44792;52.760;6.726;2024-03-08T03:20:41;2.70;99.90
59007;DHT22;44792;52.760;6.726;2024-03-08T03:23:08;2.70;99.90
59007;DHT22;44792;52.760;6.726;2024-03-08T03:25:35;2.60;99.90
59007;DHT22;44792;52.760;6.726;2024-03-08T03:28:01;2.60;99.90
59007;DHT22;44792;52.760;6.726;2024-03-08T03:30:27;2.60;99.90
59007;DHT22;44792;52.760;6.726;2024-03-08T03:33:01;2.60;99.90
59007;DHT22;44792;52.760;6.726;2024-03-08T03:35:30;2.60;99.90
59007;DHT22;44792;52.760;6.726;2024-03-08T03:37:56;2.70;99.90
59007;DHT22;44792;52.760;6.726;2024-03-08T03:40:40;2.70;99.90
59007;DHT22;44792;52.760;6.726;2024-03-08T03:43:06;2.70;99.90
59007;DHT22;44792;52.760;6.726;2024-03-08T03:45:33;2.60;99.90
59007;DHT22;44792;52.760;6.726;2024-03-08T03:48:05;2.60;99.90
59007;DHT22;44792;52.760;6.726;2024-03-08T03:50:38;2.60;99.90
59007;DHT22;44792;52.760;6.726;2024-03-08T03:53:04;2.60;99.90
59007;DHT22;44792;52.760;6.726;2024-03-08T03:55:33;2.60;99.90
59007;DHT22;44792;52.760;6.726;2024-03-08T03:57:59;2.60;99.90
59007;DHT22;44792;52.760;6.726;2024-03-08T04:00:27;2.60;99.90
59007;DHT22;44792;52.760;6.726;2024-03-08T04:02:53;2.60;99.90
59007;DHT22;44792;52.760;6.726;2024-03-08T04:05:18;2.60;99.90
59007;DHT22;44792;52.760;6.726;2024-03-08T04:07:44;2.60;99.90
59007;DHT22;44792;52.760;6.726;2024-03-08T04:10:11;2.70;99.90
59007;DHT22;44792;52.760;6.726;2024-03-08T04:12:38;2.60;99.90
59007;DHT22;44792;52.760;6.726;2024-03-08T04:15:04;2.70;99.90
59007;DHT22;44792;52.760;6.726;2024-03-08T04:17:33;2.60;99.90
59007;DHT22;44792;52.760;6.726;2024-03-08T04:20:03;2.60;99.90
59007;DHT22;44792;52.760;6.726;2024-03-08T04:22:38;2.50;99.90
59007;DHT22;44792;52.760;6.726;2024-03-08T04:25:05;2.50;99.90
59007;DHT22;44792;52.760;6.726;2024-03-08T04:27:35;2.60;99.90
59007;DHT22;44792;52.760;6.726;2024-03-08T04:30:01;2.60;99.90
59007;DHT22;44792;52.760;6.726;2024-03-08T04:32:27;2.60;99.90
59007;DHT22;44792;52.760;6.726;2024-03-08T04:34:55;2.60;99.90
59007;DHT22;44792;52.760;6.726;2024-03-08T04:37:22;2.50;99.90
59007;DHT22;44792;52.760;6.726;2024-03-08T04:39:48;2.60;99.90
59007;DHT22;44792;52.760;6.726;2024-03-08T04:42:14;2.60;99.90
59007;DHT22;44792;52.760;6.726;2024-03-08T04:44:40;2.50;99.90
59007;DHT22;44792;52.760;6.726;2024-03-08T04:47:06;2.60;99.90
59007;DHT22;44792;52.760;6.726;2024-03-08T04:49:32;2.50;99.90
59007;DHT22;44792;52.760;6.726;2024-03-08T04:52:04;2.60;99.90
59007;DHT22;44792;52.760;6.726;2024-03-08T04:54:30;2.50;99.90
59007;DHT22;44792;52.760;6.726;2024-03-08T04:56:56;2.50;99.90
59007;DHT22;44792;52.760;6.726;2024-03-08T04:59:22;2.50;99.90
59007;DHT22;44792;52.760;6.726;2024-03-08T05:01:48;2.50;99.90
59007;DHT22;44792;52.760;6.726;2024-03-08T05:04:14;2.50;99.90
59007;DHT22;44792;52.760;6.726;2024-03-08T05:06:40;2.50;99.90
59007;DHT22;44792;52.760;6.726;2024-03-08T05:09:06;2.50;99.90
59007;DHT22;44792;52.760;6.726;2024-03-08T05:11:48;2.40;99.90
59007;DHT22;44792;52.760;6.726;2024-03-08T05:14:14;2.40;99.90
59007;DHT22;44792;52.760;6.726;2024-03-08T05:16:45;2.40;99.90
59007;DHT22;44792;52.760;6.726;2024-03-08T05:19:14;2.40;99.90
59007;DHT22;44792;52.760;6.726;2024-03-08T05:21:46;2.30;99.90
59007;DHT22;44792;52.760;6.726;2024-03-08T05:24:12;2.40;99.90
59007;DHT22;44792;52.760;6.726;2024-03-08T05:26:39;2.40;99.90
59007;DHT22;44792;52.760;6.726;2024-03-08T05:29:04;2.50;99.90
59007;DHT22;44792;52.760;6.726;2024-03-08T05:34:10;2.40;99.90
59007;DHT22;44792;52.760;6.726;2024-03-08T05:36:36;2.40;99.90
59007;DHT22;44792;52.760;6.726;2024-03-08T05:39:01;2.30;99.90
59007;DHT22;44792;52.760;6.726;2024-03-08T05:41:28;2.30;99.90
59007;DHT22;44792;52.760;6.726;2024-03-08T05:43:53;2.30;99.90
59007;DHT22;44792;52.760;6.726;2024-03-08T05:46:19;2.30;99.90
59007;DHT22;44792;52.760;6.726;2024-03-08T05:48:45;2.30;99.90
59007;DHT22;44792;52.760;6.726;2024-03-08T05:51:11;2.20;99.90
59007;DHT22;44792;52.760;6.726;2024-03-08T05:53:37;2.20;99.90
59007;DHT22;44792;52.760;6.726;2024-03-08T05:56:03;2.20;99.90
59007;DHT22;44792;52.760;6.726;2024-03-08T05:58:29;2.10;99.90
59007;DHT22;44792;52.760;6.726;2024-03-08T06:00:56;2.10;99.90
59007;DHT22;44792;52.760;6.726;2024-03-08T06:03:21;2.00;99.90
59007;DHT22;44792;52.760;6.726;2024-03-08T06:05:48;2.10;99.90
59007;DHT22;44792;52.760;6.726;2024-03-08T06:08:15;2.00;99.90
59007;DHT22;44792;52.760;6.726;2024-03-08T06:10:41;2.00;99.90
59007;DHT22;44792;52.760;6.726;2024-03-08T06:13:06;2.00;99.90
59007;DHT22;44792;52.760;6.726;2024-03-08T06:15:32;2.00;99.90
59007;DHT22;44792;52.760;6.726;2024-03-08T06:17:59;2.00;99.90
59007;DHT22;44792;52.760;6.726;2024-03-08T06:20:25;2.00;99.90
59007;DHT22;44792;52.760;6.726;2024-03-08T06:22:52;2.00;99.90
59007;DHT22;44792;52.760;6.726;2024-03-08T06:25:18;2.00;99.90
59007;DHT22;44792;52.760;6.726;2024-03-08T06:27:44;2.00;99.90
59007;DHT22;44792;52.760;6.726;2024-03-08T06:30:11;2.00;99.90
59007;DHT22;44792;52.760;6.726;2024-03-08T06:32:37;1.90;99.90
59007;DHT22;44792;52.760;6.726;2024-03-08T06:35:04;1.90;99.90
59007;DHT22;44792;52.760;6.726;2024-03-08T06:37:33;2.00;99.90
59007;DHT22;44792;52.760;6.726;2024-03-08T06:39:59;2.00;99.90
59007;DHT22;44792;52.760;6.726;2024-03-08T06:42:27;1.80;99.90
59007;DHT22;44792;52.760;6.726;2024-03-08T06:44:56;1.90;99.90
59007;DHT22;44792;52.760;6.726;2024-03-08T06:47:29;1.90;99.90
59007;DHT22;44792;52.760;6.726;2024-03-08T06:49:55;1.90;99.90
59007;DHT22;44792;52.760;6.726;2024-03-08T06:52:20;1.90;99.90
59007;DHT22;44792;52.760;6.726;2024-03-08T06:54:47;2.00;99.90
59007;DHT22;44792;52.760;6.726;2024-03-08T06:57:13;1.90;99.90
59007;DHT22;44792;52.760;6.726;2024-03-08T06:59:39;2.00;99.90
59007;DHT22;44792;52.760;6.726;2024-03-08T07:02:05;2.10;99.90
59007;DHT22;44792;52.760;6.726;2024-03-08T07:04:34;2.10;99.90
59007;DHT22;44792;52.760;6.726;2024-03-08T07:07:06;2.20;99.90
59007;DHT22;44792;52.760;6.726;2024-03-08T07:09:38;2.20;99.90
59007;DHT22;44792;52.760;6.726;2024-03-08T07:12:04;2.30;99.90
59007;DHT22;44792;52.760;6.726;2024-03-08T07:14:29;2.30;99.90
59007;DHT22;44792;52.760;6.726;2024-03-08T07:16:56;2.30;99.90
59007;DHT22;44792;52.760;6.726;2024-03-08T07:19:22;2.40;99.90
59007;DHT22;44792;52.760;6.726;2024-03-08T07:21:48;2.40;99.90
59007;DHT22;44792;52.760;6.726;2024-03-08T07:24:14;2.50;99.90
59007;DHT22;44792;52.760;6.726;2024-03-08T07:26:43;2.50;99.90
59007;DHT22;44792;52.760;6.726;2024-03-08T07:29:09;2.50;99.90
59007;DHT22;44792;52.760;6.726;2024-03-08T07:31:35;2.60;99.90
59007;DHT22;44792;52.760;6.726;2024-03-08T07:34:16;2.60;99.90
59007;DHT22;44792;52.760;6.726;2024-03-08T07:36:42;2.60;99.90
59007;DHT22;44792;52.760;6.726;2024-03-08T07:39:08;2.60;99.90
59007;DHT22;44792;52.760;6.726;2024-03-08T07:41:40;2.70;99.90
59007;DHT22;44792;52.760;6.726;2024-03-08T07:44:07;2.70;99.90
59007;DHT22;44792;52.760;6.726;2024-03-08T07:46:33;2.80;99.90
59007;DHT22;44792;52.760;6.726;2024-03-08T07:49:03;2.80;99.90
59007;DHT22;44792;52.760;6.726;2024-03-08T07:51:29;2.90;99.90
59007;DHT22;44792;52.760;6.726;2024-03-08T07:53:56;2.90;99.90
59007;DHT22;44792;52.760;6.726;2024-03-08T07:56:22;2.90;99.90
59007;DHT22;44792;52.760;6.726;2024-03-08T07:58:48;2.90;99.90
59007;DHT22;44792;52.760;6.726;2024-03-08T08:01:17;3.00;99.90
59007;DHT22;44792;52.760;6.726;2024-03-08T08:03:44;3.00;99.90
59007;DHT22;44792;52.760;6.726;2024-03-08T08:06:09;3.00;99.90
59007;DHT22;44792;52.760;6.726;2024-03-08T08:08:42;3.10;99.90
59007;DHT22;44792;52.760;6.726;2024-03-08T08:11:08;3.10;99.90
59007;DHT22;44792;52.760;6.726;2024-03-08T08:13:35;3.10;99.90
59007;DHT22;44792;52.760;6.726;2024-03-08T08:16:02;3.20;99.90
59007;DHT22;44792;52.760;6.726;2024-03-08T08:18:28;3.20;99.90
59007;DHT22;44792;52.760;6.726;2024-03-08T08:20:55;3.30;99.90
59007;DHT22;44792;52.760;6.726;2024-03-08T08:23:21;3.30;99.90
59007;DHT22;44792;52.760;6.726;2024-03-08T08:25:47;3.30;99.90
59007;DHT22;44792;52.760;6.726;2024-03-08T08:28:16;3.30;99.90
59007;DHT22;44792;52.760;6.726;2024-03-08T08:30:43;3.30;99.90
59007;DHT22;44792;52.760;6.726;2024-03-08T08:33:09;3.40;99.90
59007;DHT22;44792;52.760;6.726;2024-03-08T08:35:36;3.50;99.90
59007;DHT22;44792;52.760;6.726;2024-03-08T08:38:06;3.50;99.90
59007;DHT22;44792;52.760;6.726;2024-03-08T08:40:35;3.50;99.90
59007;DHT22;44792;52.760;6.726;2024-03-08T08:43:02;3.60;99.90
59007;DHT22;44792;52.760;6.726;2024-03-08T08:45:31;3.60;99.90
59007;DHT22;44792;52.760;6.726;2024-03-08T08:47:57;3.60;99.90
59007;DHT22;44792;52.760;6.726;2024-03-08T08:50:25;3.60;99.90
59007;DHT22;44792;52.760;6.726;2024-03-08T08:52:52;3.60;99.90
59007;DHT22;44792;52.760;6.726;2024-03-08T08:55:18;3.60;99.90
59007;DHT22;44792;52.760;6.726;2024-03-08T08:57:47;3.70;99.90
59007;DHT22;44792;52.760;6.726;2024-03-08T09:00:18;3.80;99.90
59007;DHT22;44792;52.760;6.726;2024-03-08T09:02:45;3.80;99.90
59007;DHT22;44792;52.760;6.726;2024-03-08T09:05:11;3.80;99.90
59007;DHT22;44792;52.760;6.726;2024-03-08T09:07:37;3.90;99.90
59007;DHT22;44792;52.760;6.726;2024-03-08T09:10:03;3.90;99.90
59007;DHT22;44792;52.760;6.726;2024-03-08T09:12:29;3.90;99.90
59007;DHT22;44792;52.760;6.726;2024-03-08T09:14:55;3.90;99.90
59007;DHT22;44792;52.760;6.726;2024-03-08T09:17:21;4.10;99.90
59007;DHT22;44792;52.760;6.726;2024-03-08T09:19:47;4.10;99.90
59007;DHT22;44792;52.760;6.726;2024-03-08T09:22:13;4.30;99.90
59007;DHT22;44792;52.760;6.726;2024-03-08T09:24:39;4.30;99.90
59007;DHT22;44792;52.760;6.726;2024-03-08T09:27:05;4.30;99.90
59007;DHT22;44792;52.760;6.726;2024-03-08T09:29:31;4.30;99.90
59007;DHT22;44792;52.760;6.726;2024-03-08T09:31:57;4.40;99.90
59007;DHT22;44792;52.760;6.726;2024-03-08T09:34:23;4.40;99.90
59007;DHT22;44792;52.760;6.726;2024-03-08T09:36:49;4.40;99.90
59007;DHT22;44792;52.760;6.726;2024-03-08T09:39:17;4.50;99.90
59007;DHT22;44792;52.760;6.726;2024-03-08T09:41:47;4.40;99.90
59007;DHT22;44792;52.760;6.726;2024-03-08T09:44:15;4.50;99.90
59007;DHT22;44792;52.760;6.726;2024-03-08T09:46:42;4.60;99.90
59007;DHT22;44792;52.760;6.726;2024-03-08T09:49:08;4.70;99.90
59007;DHT22;44792;52.760;6.726;2024-03-08T09:51:37;4.80;99.90
59007;DHT22;44792;52.760;6.726;2024-03-08T09:54:06;4.80;99.90
59007;DHT22;44792;52.760;6.726;2024-03-08T09:56:41;4.80;99.90
59007;DHT22;44792;52.760;6.726;2024-03-08T09:59:10;4.80;99.90
59007;DHT22;44792;52.760;6.726;2024-03-08T10:01:54;4.80;99.90
59007;DHT22;44792;52.760;6.726;2024-03-08T10:04:24;4.90;99.90
59007;DHT22;44792;52.760;6.726;2024-03-08T10:06:51;5.00;99.90
59007;DHT22;44792;52.760;6.726;2024-03-08T10:09:17;5.10;99.90
59007;DHT22;44792;52.760;6.726;2024-03-08T10:11:45;5.10;99.90
59007;DHT22;44792;52.760;6.726;2024-03-08T10:14:11;5.10;99.90
59007;DHT22;44792;52.760;6.726;2024-03-08T10:16:40;5.10;99.90
59007;DHT22;44792;52.760;6.726;2024-03-08T10:19:09;5.10;99.90
59007;DHT22;44792;52.760;6.726;2024-03-08T10:21:50;5.20;99.90
59007;DHT22;44792;52.760;6.726;2024-03-08T10:24:19;5.20;99.90
59007;DHT22;44792;52.760;6.726;2024-03-08T10:26:45;5.40;99.90
59007;DHT22;44792;52.760;6.726;2024-03-08T10:29:12;5.30;99.90
59007;DHT22;44792;52.760;6.726;2024-03-08T10:31:43;5.40;99.90
59007;DHT22;44792;52.760;6.726;2024-03-08T10:34:12;5.50;99.90
59007;DHT22;44792;52.760;6.726;2024-03-08T10:36:40;5.50;99.90
59007;DHT22;44792;52.760;6.726;2024-03-08T10:39:23;5.50;99.90
59007;DHT22;44792;52.760;6.726;2024-03-08T10:41:52;5.60;99.90
59007;DHT22;44792;52.760;6.726;2024-03-08T10:44:43;5.60;99.90
59007;DHT22;44792;52.760;6.726;2024-03-08T10:47:17;5.70;99.90
59007;DHT22;44792;52.760;6.726;2024-03-08T10:49:54;5.80;99.90
59007;DHT22;44792;52.760;6.726;2024-03-08T10:52:20;5.80;99.90
59007;DHT22;44792;52.760;6.726;2024-03-08T10:54:48;5.90;99.90
59007;DHT22;44792;52.760;6.726;2024-03-08T10:57:17;5.90;99.90
59007;DHT22;44792;52.760;6.726;2024-03-08T10:59:43;5.90;99.90
59007;DHT22;44792;52.760;6.726;2024-03-08T11:02:11;5.90;99.90
59007;DHT22;44792;52.760;6.726;2024-03-08T11:04:38;6.00;99.90
59007;DHT22;44792;52.760;6.726;2024-03-08T11:07:04;6.20;99.90
59007;DHT22;44792;52.760;6.726;2024-03-08T11:09:37;6.20;99.90
59007;DHT22;44792;52.760;6.726;2024-03-08T11:12:26;6.30;99.90
59007;DHT22;44792;52.760;6.726;2024-03-08T11:15:02;6.30;99.90
59007;DHT22;44792;52.760;6.726;2024-03-08T11:19:59;6.40;99.90
59007;DHT22;44792;52.760;6.726;2024-03-08T11:22:32;6.50;99.90
59007;DHT22;44792;52.760;6.726;2024-03-08T11:25:08;6.60;99.90
59007;DHT22;44792;52.760;6.726;2024-03-08T11:27:38;6.60;99.90
59007;DHT22;44792;52.760;6.726;2024-03-08T11:30:06;6.60;99.90
59007;DHT22;44792;52.760;6.726;2024-03-08T11:32:52;6.80;99.90
59007;DHT22;44792;52.760;6.726;2024-03-08T11:35:21;6.80;99.90
59007;DHT22;44792;52.760;6.726;2024-03-08T11:37:48;6.70;99.90
59007;DHT22;44792;52.760;6.726;2024-03-08T11:40:15;6.80;99.90
59007;DHT22;44792;52.760;6.726;2024-03-08T11:42:48;6.80;99.90
59007;DHT22;44792;52.760;6.726;2024-03-08T11:45:17;6.90;99.90
59007;DHT22;44792;52.760;6.726;2024-03-08T11:47:43;6.90;99.90
59007;DHT22;44792;52.760;6.726;2024-03-08T11:50:12;7.00;99.90
59007;DHT22;44792;52.760;6.726;2024-03-08T11:52:38;7.10;99.90
59007;DHT22;44792;52.760;6.726;2024-03-08T11:55:05;7.10;99.90
59007;DHT22;44792;52.760;6.726;2024-03-08T11:57:31;7.10;99.90
59007;DHT22;44792;52.760;6.726;2024-03-08T11:59:58;7.10;99.90
59007;DHT22;44792;52.760;6.726;2024-03-08T12:02:31;7.10;99.90
59007;DHT22;44792;52.760;6.726;2024-03-08T12:04:59;7.20;99.90
59007;DHT22;44792;52.760;6.726;2024-03-08T12:07:25;7.30;99.90
59007;DHT22;44792;52.760;6.726;2024-03-08T12:10:15;7.30;99.90
59007;DHT22;44792;52.760;6.726;2024-03-08T12:12:46;7.30;99.90
59007;DHT22;44792;52.760;6.726;2024-03-08T12:15:14;7.40;99.90
59007;DHT22;44792;52.760;6.726;2024-03-08T12:17:41;7.40;99.90
59007;DHT22;44792;52.760;6.726;2024-03-08T12:20:27;7.40;99.90
59007;DHT22;44792;52.760;6.726;2024-03-08T12:22:57;7.50;99.90
59007;DHT22;44792;52.760;6.726;2024-03-08T12:25:42;7.50;99.90
59007;DHT22;44792;52.760;6.726;2024-03-08T12:28:09;7.70;99.90
59007;DHT22;44792;52.760;6.726;2024-03-08T12:30:47;7.80;99.90
59007;DHT22;44792;52.760;6.726;2024-03-08T12:33:13;8.20;99.90
59007;DHT22;44792;52.760;6.726;2024-03-08T12:35:39;7.90;99.90
59007;DHT22;44792;52.760;6.726;2024-03-08T12:38:06;7.90;99.90
59007;DHT22;44792;52.760;6.726;2024-03-08T12:40:34;7.90;99.90
59007;DHT22;44792;52.760;6.726;2024-03-08T12:43:01;8.00;99.90
59007;DHT22;44792;52.760;6.726;2024-03-08T12:45:27;8.00;99.90
59007;DHT22;44792;52.760;6.726;2024-03-08T12:47:54;8.00;99.90
59007;DHT22;44792;52.760;6.726;2024-03-08T12:50:23;8.00;99.90
59007;DHT22;44792;52.760;6.726;2024-03-08T12:52:52;8.10;99.90
59007;DHT22;44792;52.760;6.726;2024-03-08T12:55:21;8.10;99.90
59007;DHT22;44792;52.760;6.726;2024-03-08T12:57:47;8.20;99.90
59007;DHT22;44792;52.760;6.726;2024-03-08T13:00:14;8.30;99.90
59007;DHT22;44792;52.760;6.726;2024-03-08T13:02:49;8.30;99.90
59007;DHT22;44792;52.760;6.726;2024-03-08T13:05:18;8.30;99.90
59007;DHT22;44792;52.760;6.726;2024-03-08T13:07:44;8.40;99.90
59007;DHT22;44792;52.760;6.726;2024-03-08T13:10:13;8.30;99.90
59007;DHT22;44792;52.760;6.726;2024-03-08T13:12:42;8.30;99.90
59007;DHT22;44792;52.760;6.726;2024-03-08T13:15:09;8.30;99.90
59007;DHT22;44792;52.760;6.726;2024-03-08T13:17:46;8.30;99.90
59007;DHT22;44792;52.760;6.726;2024-03-08T13:20:13;8.30;99.90
59007;DHT22;44792;52.760;6.726;2024-03-08T13:22:42;8.20;99.90
59007;DHT22;44792;52.760;6.726;2024-03-08T13:25:08;8.30;99.90
59007;DHT22;44792;52.760;6.726;2024-03-08T13:27:42;8.30;99.90
59007;DHT22;44792;52.760;6.726;2024-03-08T13:30:09;8.30;99.90
59007;DHT22;44792;52.760;6.726;2024-03-08T13:32:42;8.50;99.90
59007;DHT22;44792;52.760;6.726;2024-03-08T13:35:11;8.50;99.90
59007;DHT22;44792;52.760;6.726;2024-03-08T13:37:41;8.50;99.90
59007;DHT22;44792;52.760;6.726;2024-03-08T13:40:08;8.50;99.90
59007;DHT22;44792;52.760;6.726;2024-03-08T13:42:39;8.50;99.90
59007;DHT22;44792;52.760;6.726;2024-03-08T13:45:07;8.50;99.90
59007;DHT22;44792;52.760;6.726;2024-03-08T13:47:34;8.60;99.90
59007;DHT22;44792;52.760;6.726;2024-03-08T13:50:00;8.60;99.90
59007;DHT22;44792;52.760;6.726;2024-03-08T13:52:26;8.60;99.90
59007;DHT22;44792;52.760;6.726;2024-03-08T13:54:55;8.60;99.90
59007;DHT22;44792;52.760;6.726;2024-03-08T13:57:21;8.60;99.90
59007;DHT22;44792;52.760;6.726;2024-03-08T13:59:48;8.90;99.90
59007;DHT22;44792;52.760;6.726;2024-03-08T14:02:16;8.70;99.90
59007;DHT22;44792;52.760;6.726;2024-03-08T14:04:42;8.70;99.90
59007;DHT22;44792;52.760;6.726;2024-03-08T14:07:08;8.60;99.90
59007;DHT22;44792;52.760;6.726;2024-03-08T14:09:35;8.50;99.90
59007;DHT22;44792;52.760;6.726;2024-03-08T14:12:05;8.60;99.90
59007;DHT22;44792;52.760;6.726;2024-03-08T14:14:34;8.70;99.90
59007;DHT22;44792;52.760;6.726;2024-03-08T14:17:03;8.60;99.90
59007;DHT22;44792;52.760;6.726;2024-03-08T14:19:29;8.50;99.90
59007;DHT22;44792;52.760;6.726;2024-03-08T14:21:59;8.60;99.90
59007;DHT22;44792;52.760;6.726;2024-03-08T14:24:25;8.70;99.90
59007;DHT22;44792;52.760;6.726;2024-03-08T14:26:51;8.60;99.90
59007;DHT22;44792;52.760;6.726;2024-03-08T14:29:17;8.60;99.90
59007;DHT22;44792;52.760;6.726;2024-03-08T14:31:46;8.60;99.90
59007;DHT22;44792;52.760;6.726;2024-03-08T14:34:11;8.60;99.90
59007;DHT22;44792;52.760;6.726;2024-03-08T14:36:39;8.60;99.90
59007;DHT22;44792;52.760;6.726;2024-03-08T14:39:05;8.60;99.90
59007;DHT22;44792;52.760;6.726;2024-03-08T14:41:33;8.60;99.90
59007;DHT22;44792;52.760;6.726;2024-03-08T14:43:58;8.70;99.90
59007;DHT22;44792;52.760;6.726;2024-03-08T14:46:25;8.70;99.90
59007;DHT22;44792;52.760;6.726;2024-03-08T14:48:55;8.60;99.90
59007;DHT22;44792;52.760;6.726;2024-03-08T14:51:22;8.70;99.90
59007;DHT22;44792;52.760;6.726;2024-03-08T14:53:52;8.60;99.90
59007;DHT22;44792;52.760;6.726;2024-03-08T14:56:18;8.60;99.90
59007;DHT22;44792;52.760;6.726;2024-03-08T14:58:45;8.60;99.90
59007;DHT22;44792;52.760;6.726;2024-03-08T15:01:12;8.60;99.90
59007;DHT22;44792;52.760;6.726;2024-03-08T15:03:41;8.60;99.90
59007;DHT22;44792;52.760;6.726;2024-03-08T15:06:08;8.60;99.90
59007;DHT22;44792;52.760;6.726;2024-03-08T15:08:38;8.60;99.90
59007;DHT22;44792;52.760;6.726;2024-03-08T15:11:05;8.60;99.90
59007;DHT22;44792;52.760;6.726;2024-03-08T15:13:35;8.50;99.90
59007;DHT22;44792;52.760;6.726;2024-03-08T15:16:10;8.50;99.90
59007;DHT22;44792;52.760;6.726;2024-03-08T15:18:42;8.50;99.90
59007;DHT22;44792;52.760;6.726;2024-03-08T15:21:12;8.50;99.90
59007;DHT22;44792;52.760;6.726;2024-03-08T15:23:43;8.50;99.90
59007;DHT22;44792;52.760;6.726;2024-03-08T15:26:13;8.50;99.90
59007;DHT22;44792;52.760;6.726;2024-03-08T15:28:38;8.40;99.90
59007;DHT22;44792;52.760;6.726;2024-03-08T15:31:06;8.40;99.90
59007;DHT22;44792;52.760;6.726;2024-03-08T15:33:36;8.40;99.90
59007;DHT22;44792;52.760;6.726;2024-03-08T15:36:18;8.40;99.90
59007;DHT22;44792;52.760;6.726;2024-03-08T15:38:46;8.40;99.90
59007;DHT22;44792;52.760;6.726;2024-03-08T15:41:13;8.50;99.90
59007;DHT22;44792;52.760;6.726;2024-03-08T15:43:41;8.50;99.90
59007;DHT22;44792;52.760;6.726;2024-03-08T15:46:08;8.50;99.90
59007;DHT22;44792;52.760;6.726;2024-03-08T15:48:35;8.40;99.90
59007;DHT22;44792;52.760;6.726;2024-03-08T15:51:02;8.40;99.90
59007;DHT22;44792;52.760;6.726;2024-03-08T15:53:34;8.40;99.90